Jonesboro Heights, North Carolina
Current Conditions -  °F | °C
As of 7:35 PM on Monday 24 Nov 2014 (Local Time) from KTTA Reporting Station
Scattered Clouds Scattered Clouds  
Wind Chill: 67°   Ceiling: Unl
Heat Index: 67°   Visibility: 10mi
Dew Point: 65°   Wind: 10mph
Humidity: 92%   Direction: 190°S
Pressure: 29.87"   Gusts: 18mph
Location:  35.493°N, 79.1765°W
Report Text: KTTA 250035Z AUTO 19009G16KT 10SM SCT014 20/18 A2987 RMK AO2 T01950181
Loading
Personal Weather Stations






























Interactive Weather Map New forecast layout! Learn more

10-Day Weather Forecast

Advertisements
Track Severe Weather on mobile